Time;durP1;ratioP1;P1;durP2;ratioP2;P2;SDS_P1;SDS_P2;PMS_P1;PMS_P2;Temp;Humidity;BMP_temperature;BMP_pressure;BME280_temperature;BME280_humidity;BME280_pressure;Samples;Min_cycle;Max_cycle;Signal;HPM_P1;HPM_P2
2021/10/31 00:00:40;;;;;;;14.05;9.00;;;13.80;90.50;;;;;;5024687;28;20033;-79
2021/10/31 00:03:05;;;;;;;10.85;8.80;;;13.80;90.60;;;;;;5014813;28;20037;-80
2021/10/31 00:05:31;;;;;;;12.05;8.85;;;13.70;90.50;;;;;;5024099;28;20522;-80
2021/10/31 00:07:57;;;;;;;13.27;9.57;;;13.70;90.50;;;;;;5019952;28;20120;-82
2021/10/31 00:10:22;;;;;;;16.27;9.38;;;13.70;90.50;;;;;;5026558;28;20045;-79
2021/10/31 00:12:48;;;;;;;13.00;8.57;;;13.70;90.60;;;;;;5022183;28;20033;-80
2021/10/31 00:15:13;;;;;;;14.23;9.43;;;13.60;90.60;;;;;;5027926;28;20025;-80
2021/10/31 00:17:39;;;;;;;14.73;8.88;;;13.60;90.60;;;;;;5025306;28;20136;-79
2021/10/31 00:20:06;;;;;;;13.43;9.27;;;13.50;90.70;;;;;;5025296;28;20030;-80
2021/10/31 00:22:31;;;;;;;13.23;9.52;;;13.50;90.80;;;;;;5026300;28;20061;-80
2021/10/31 00:24:57;;;;;;;14.52;9.73;;;13.50;90.80;;;;;;5026672;28;20033;-80
2021/10/31 00:27:22;;;;;;;13.75;9.20;;;13.40;90.90;;;;;;5019485;28;20029;-80
2021/10/31 00:29:48;;;;;;;12.10;8.82;;;13.40;90.90;;;;;;5040428;28;20055;-81
2021/10/31 00:32:13;;;;;;;10.95;8.15;;;13.40;91.00;;;;;;5014075;28;20038;-81
2021/10/31 00:34:39;;;;;;;12.07;8.68;;;13.40;91.10;;;;;;5020747;28;20046;-82
2021/10/31 00:37:04;;;;;;;11.18;8.13;;;13.40;91.20;;;;;;5011659;28;20030;-81
2021/10/31 00:39:30;;;;;;;12.68;8.00;;;13.40;91.30;;;;;;5026212;28;20121;-82
2021/10/31 00:41:56;;;;;;;10.43;8.13;;;13.40;91.40;;;;;;5024422;28;20041;-81
2021/10/31 00:44:21;;;;;;;9.80;8.10;;;13.40;91.60;;;;;;5016494;28;20078;-81
2021/10/31 00:46:47;;;;;;;10.18;7.90;;;13.30;91.50;;;;;;5012968;28;20052;-81
2021/10/31 00:49:13;;;;;;;14.30;8.02;;;13.30;91.60;;;;;;5012137;28;20057;-80
2021/10/31 00:51:40;;;;;;;9.98;7.60;;;13.30;91.80;;;;;;5025311;28;20101;-79
2021/10/31 00:54:06;;;;;;;13.15;8.70;;;13.30;91.90;;;;;;5036873;28;20029;-81
2021/10/31 00:56:32;;;;;;;11.02;7.85;;;13.30;91.80;;;;;;5024373;28;20466;-81
2021/10/31 00:58:58;;;;;;;11.18;8.73;;;13.30;91.90;;;;;;5030532;28;20040;-80
2021/10/31 01:01:25;;;;;;;9.10;7.57;;;13.30;92.00;;;;;;5028114;28;20026;-81
2021/10/31 01:03:52;;;;;;;11.40;7.85;;;13.30;92.00;;;;;;5020563;28;20063;-81
2021/10/31 01:06:44;;;;;;;10.38;7.65;;;13.30;92.00;;;;;;5013392;28;20037;-81
2021/10/31 01:09:21;;;;;;;11.05;7.32;;;13.30;92.20;;;;;;5022055;28;20146;-80
2021/10/31 01:12:12;;;;;;;10.73;7.28;;;13.30;92.30;;;;;;5026562;28;20029;-80
2021/10/31 01:14:55;;;;;;;10.38;7.55;;;13.20;92.40;;;;;;5020822;28;20268;-81
2021/10/31 01:17:57;;;;;;;11.18;8.13;;;13.20;92.50;;;;;;5036592;28;20093;-80
2021/10/31 01:21:03;;;;;;;11.05;7.68;;;13.10;92.60;;;;;;5021476;28;20048;-81
2021/10/31 01:24:08;;;;;;;10.63;7.85;;;13.20;92.70;;;;;;5029695;28;20508;-81
2021/10/31 01:27:06;;;;;;;9.63;7.13;;;13.10;92.80;;;;;;5019242;28;20026;-81
2021/10/31 01:29:47;;;;;;;9.52;7.35;;;13.10;93.00;;;;;;5015466;28;20414;-80
2021/10/31 01:32:23;;;;;;;10.70;7.05;;;13.00;93.00;;;;;;5010457;28;20438;-81
2021/10/31 01:35:04;;;;;;;10.90;6.70;;;13.00;93.10;;;;;;5024800;28;20044;-82
2021/10/31 01:38:03;;;;;;;10.00;7.60;;;13.00;93.20;;;;;;5014944;28;20036;-81
2021/10/31 01:40:43;;;;;;;10.70;6.15;;;13.00;93.20;;;;;;5027274;28;20463;-80
2021/10/31 01:43:52;;;;;;;10.57;7.22;;;13.00;93.30;;;;;;5011461;28;20034;-81
2021/10/31 01:46:42;;;;;;;7.78;6.50;;;13.00;93.40;;;;;;5018069;28;20151;-80
2021/10/31 01:49:22;;;;;;;9.45;6.45;;;13.00;93.40;;;;;;4982181;28;20041;-81
2021/10/31 01:51:54;;;;;;;12.23;6.15;;;13.00;93.40;;;;;;5028249;28;20056;-81
2021/10/31 01:54:25;;;;;;;9.52;6.72;;;13.10;93.50;;;;;;5026098;28;20053;-81
2021/10/31 01:56:53;;;;;;;9.68;6.63;;;13.10;93.50;;;;;;5017016;28;20462;-80
2021/10/31 01:59:27;;;;;;;10.30;6.63;;;13.10;93.40;;;;;;5020970;28;20115;-80
2021/10/31 02:01:55;;;;;;;7.93;6.07;;;13.10;93.40;;;;;;5022577;28;20041;-80
2021/10/31 02:04:24;;;;;;;9.50;6.78;;;13.20;93.40;;;;;;5012850;28;20033;-80
2021/10/31 02:06:52;;;;;;;9.02;6.65;;;13.20;93.40;;;;;;5017938;28;20032;-80
2021/10/31 02:09:21;;;;;;;9.00;7.18;;;13.20;93.40;;;;;;5013999;28;20034;-80
2021/10/31 02:11:48;;;;;;;8.38;6.20;;;13.10;93.40;;;;;;5025935;28;20437;-80
2021/10/31 02:14:15;;;;;;;9.57;6.68;;;13.20;93.40;;;;;;5014804;28;20036;-80
2021/10/31 02:16:42;;;;;;;8.43;6.35;;;13.20;93.50;;;;;;5022068;28;20038;-80
2021/10/31 02:19:21;;;;;;;11.25;6.85;;;13.10;93.40;;;;;;5028346;28;20037;-81
2021/10/31 02:21:52;;;;;;;9.40;7.35;;;13.10;93.50;;;;;;5017766;28;20050;-79
2021/10/31 02:24:18;;;;;;;9.43;5.40;;;13.10;93.60;;;;;;5012628;28;20038;-79
2021/10/31 02:26:44;;;;;;;7.93;5.85;;;13.10;93.60;;;;;;5023672;28;20068;-80
2021/10/31 02:29:09;;;;;;;8.70;6.20;;;13.10;93.70;;;;;;5017364;28;20493;-79
2021/10/31 02:31:37;;;;;;;9.02;6.45;;;13.10;93.80;;;;;;5030016;28;20037;-81
2021/10/31 02:34:05;;;;;;;8.98;6.65;;;13.10;93.80;;;;;;5019228;28;20029;-79
2021/10/31 02:36:31;;;;;;;9.05;7.05;;;13.10;93.90;;;;;;5021567;28;20033;-79
2021/10/31 02:39:01;;;;;;;7.55;6.20;;;13.10;93.90;;;;;;5030687;28;20096;-82
2021/10/31 02:41:28;;;;;;;8.82;6.72;;;13.10;93.90;;;;;;5019564;28;20054;-81
2021/10/31 02:43:53;;;;;;;7.57;5.63;;;13.10;94.00;;;;;;5019443;28;20037;-82
2021/10/31 02:46:19;;;;;;;10.13;6.68;;;13.10;94.00;;;;;;5027148;28;20028;-81
2021/10/31 02:48:44;;;;;;;9.18;6.72;;;13.10;94.00;;;;;;5023133;28;20030;-80
2021/10/31 02:51:29;;;;;;;9.60;6.68;;;13.10;94.00;;;;;;5023915;28;20556;-79
2021/10/31 02:54:14;;;;;;;9.90;6.47;;;13.20;94.00;;;;;;5018152;28;20460;-80
2021/10/31 02:56:49;;;;;;;7.80;6.22;;;13.20;93.90;;;;;;5022814;28;20536;-80
2021/10/31 02:59:22;;;;;;;9.82;6.50;;;13.10;94.00;;;;;;5049907;28;20030;-80
2021/10/31 03:01:50;;;;;;;8.90;7.20;;;13.20;94.00;;;;;;5038307;28;20033;-80
2021/10/31 03:04:17;;;;;;;9.43;6.80;;;13.10;94.20;;;;;;5021370;28;20445;-80
2021/10/31 03:06:44;;;;;;;8.82;6.25;;;13.10;94.10;;;;;;5024792;28;20062;-80
2021/10/31 03:09:10;;;;;;;9.52;6.63;;;13.10;94.20;;;;;;5033857;28;20108;-80
2021/10/31 03:11:36;;;;;;;7.78;5.88;;;13.10;94.20;;;;;;5018901;28;20109;-80
2021/10/31 03:14:01;;;;;;;8.85;6.70;;;13.10;94.30;;;;;;5013081;28;20083;-80
2021/10/31 03:16:27;;;;;;;10.75;6.28;;;13.10;94.30;;;;;;5017977;28;20483;-80
2021/10/31 03:18:52;;;;;;;9.88;7.25;;;13.10;94.40;;;;;;5018435;28;20033;-79
2021/10/31 03:21:18;;;;;;;9.27;6.32;;;13.10;94.50;;;;;;5030614;28;20045;-79
2021/10/31 03:23:43;;;;;;;12.70;7.22;;;13.10;94.50;;;;;;5026827;28;20041;-79
2021/10/31 03:26:09;;;;;;;9.98;6.20;;;13.00;94.60;;;;;;5038903;28;20117;-79
2021/10/31 03:28:34;;;;;;;9.05;6.15;;;13.00;94.70;;;;;;5026452;28;20041;-79
2021/10/31 03:31:00;;;;;;;7.00;5.43;;;13.00;94.90;;;;;;5021183;28;20048;-80
2021/10/31 03:33:26;;;;;;;9.25;6.25;;;13.00;94.90;;;;;;5019575;28;20025;-79
2021/10/31 03:35:51;;;;;;;8.18;5.47;;;13.00;95.00;;;;;;5032103;28;20595;-79
2021/10/31 03:38:18;;;;;;;8.40;5.45;;;13.00;94.90;;;;;;5021100;28;20033;-79
2021/10/31 03:40:45;;;;;;;6.65;5.00;;;13.00;95.00;;;;;;5030175;28;20048;-79
2021/10/31 03:43:10;;;;;;;8.18;5.72;;;13.00;95.00;;;;;;5033187;28;20057;-81
2021/10/31 03:45:38;;;;;;;8.82;5.53;;;13.00;95.10;;;;;;5028693;28;20502;-81
2021/10/31 03:48:04;;;;;;;7.38;5.15;;;13.00;95.10;;;;;;5027452;28;20076;-80
2021/10/31 03:50:29;;;;;;;8.95;6.25;;;13.00;95.10;;;;;;5017584;28;20517;-81
2021/10/31 03:52:55;;;;;;;8.07;5.38;;;13.00;95.10;;;;;;5026599;28;20037;-80
2021/10/31 03:55:21;;;;;;;7.50;5.35;;;13.00;95.10;;;;;;5015804;28;20104;-80
2021/10/31 03:57:46;;;;;;;7.65;5.45;;;13.00;95.20;;;;;;5024165;28;20438;-80
2021/10/31 04:00:14;;;;;;;8.18;5.70;;;13.00;95.20;;;;;;5016791;28;20033;-81
2021/10/31 04:02:40;;;;;;;7.80;5.93;;;12.90;95.20;;;;;;5044337;28;20056;-81
2021/10/31 04:05:07;;;;;;;8.88;6.80;;;12.90;95.30;;;;;;5017068;28;20033;-81
2021/10/31 04:07:33;;;;;;;12.25;5.72;;;12.90;95.40;;;;;;5027622;28;20033;-81
2021/10/31 04:09:59;;;;;;;8.25;5.78;;;12.90;95.50;;;;;;5024261;28;20043;-80
2021/10/31 04:12:25;;;;;;;8.80;5.72;;;12.90;95.50;;;;;;5033181;28;20021;-80
2021/10/31 04:14:50;;;;;;;8.00;6.60;;;12.90;95.50;;;;;;5027763;28;20505;-80
2021/10/31 04:17:16;;;;;;;7.00;5.85;;;12.80;95.60;;;;;;5029955;28;20038;-79
2021/10/31 04:19:41;;;;;;;9.45;6.50;;;12.80;95.70;;;;;;5025029;28;20440;-79
2021/10/31 04:22:07;;;;;;;8.57;5.80;;;12.80;95.90;;;;;;5017082;28;20046;-81
2021/10/31 04:24:33;;;;;;;8.98;6.00;;;12.80;95.90;;;;;;5036255;28;20032;-80
2021/10/31 04:26:59;;;;;;;7.18;5.43;;;12.80;96.00;;;;;;5025343;28;20425;-80
2021/10/31 04:29:25;;;;;;;11.45;5.93;;;12.70;96.10;;;;;;5025399;28;20025;-80
2021/10/31 04:31:51;;;;;;;9.32;6.32;;;12.80;96.20;;;;;;5021381;28;20034;-79
2021/10/31 04:34:16;;;;;;;8.15;5.32;;;12.70;96.20;;;;;;5022232;28;20062;-79
2021/10/31 04:36:42;;;;;;;10.48;5.47;;;12.70;96.30;;;;;;5014949;28;20059;-81
2021/10/31 04:39:08;;;;;;;8.32;6.13;;;12.70;96.40;;;;;;5022805;28;20025;-79
2021/10/31 04:41:33;;;;;;;8.90;6.57;;;12.70;96.50;;;;;;5017460;28;20075;-79
2021/10/31 04:43:59;;;;;;;9.90;6.35;;;12.70;96.60;;;;;;5015672;28;20034;-79
2021/10/31 04:46:24;;;;;;;12.18;6.13;;;12.70;96.70;;;;;;5023264;28;20040;-79
2021/10/31 04:48:50;;;;;;;7.50;5.72;;;12.70;96.80;;;;;;5020298;28;20501;-78
2021/10/31 04:51:15;;;;;;;7.63;6.03;;;12.70;96.90;;;;;;5017126;28;20034;-79
2021/10/31 04:53:42;;;;;;;8.77;6.05;;;12.60;97.00;;;;;;5020768;28;20085;-79
2021/10/31 04:56:08;;;;;;;9.27;6.15;;;12.60;97.00;;;;;;5014377;28;20037;-79
2021/10/31 04:58:33;;;;;;;8.25;5.97;;;12.60;97.10;;;;;;5025369;28;20091;-78
2021/10/31 05:00:59;;;;;;;8.50;6.13;;;12.70;97.00;;;;;;5027579;28;20541;-79
2021/10/31 05:03:25;;;;;;;10.45;6.25;;;12.70;97.20;;;;;;5020813;28;20033;-79
2021/10/31 05:05:50;;;;;;;7.97;5.75;;;12.60;97.20;;;;;;5019790;28;20036;-79
2021/10/31 05:08:16;;;;;;;9.73;6.07;;;12.60;97.30;;;;;;5021521;28;20037;-81
2021/10/31 05:10:41;;;;;;;8.27;5.95;;;12.60;97.50;;;;;;5021106;28;20091;-79
2021/10/31 05:13:07;;;;;;;7.63;5.88;;;12.60;97.60;;;;;;5025278;28;20478;-79
2021/10/31 05:15:33;;;;;;;9.50;7.00;;;12.60;97.70;;;;;;5024619;28;20603;-79
2021/10/31 05:17:58;;;;;;;7.80;6.07;;;12.60;97.80;;;;;;5023731;28;20076;-81
2021/10/31 05:20:24;;;;;;;8.20;6.20;;;12.60;97.90;;;;;;5022002;28;20026;-79
2021/10/31 05:22:50;;;;;;;7.75;5.88;;;12.60;98.00;;;;;;5023229;28;20041;-79
2021/10/31 05:25:15;;;;;;;9.30;5.70;;;12.60;98.10;;;;;;5027241;28;20087;-79
2021/10/31 05:27:42;;;;;;;6.75;5.68;;;12.60;98.10;;;;;;5020888;28;20037;-80
2021/10/31 05:30:10;;;;;;;8.57;6.03;;;12.60;98.20;;;;;;5015880;28;20131;-79
2021/10/31 05:32:38;;;;;;;7.57;5.85;;;12.60;98.30;;;;;;5011500;28;20037;-79
2021/10/31 05:35:06;;;;;;;7.85;5.43;;;12.60;98.30;;;;;;5011186;28;20025;-79
2021/10/31 05:37:37;;;;;;;8.75;6.35;;;12.60;98.30;;;;;;5023848;28;20130;-79
2021/10/31 05:40:07;;;;;;;8.55;6.53;;;12.60;98.40;;;;;;5028179;28;20034;-79
2021/10/31 05:42:33;;;;;;;9.68;5.60;;;12.60;98.30;;;;;;5025088;28;20068;-79
2021/10/31 05:44:58;;;;;;;8.52;6.90;;;12.60;98.30;;;;;;5034100;28;20143;-79
2021/10/31 05:47:25;;;;;;;8.05;6.25;;;12.60;98.30;;;;;;5026191;28;20105;-79
2021/10/31 05:49:51;;;;;;;6.65;5.30;;;12.60;98.30;;;;;;5026407;28;20033;-79
2021/10/31 05:52:17;;;;;;;8.52;6.07;;;12.60;98.30;;;;;;5025165;28;20068;-81
2021/10/31 05:54:43;;;;;;;8.88;5.80;;;12.60;98.30;;;;;;5028341;28;20128;-79
2021/10/31 05:57:08;;;;;;;6.45;5.15;;;12.60;98.20;;;;;;5028507;28;20398;-81
2021/10/31 05:59:34;;;;;;;10.30;6.72;;;12.60;98.10;;;;;;5023654;28;20026;-80
2021/10/31 06:02:00;;;;;;;7.55;6.53;;;12.60;98.20;;;;;;5029471;28;20037;-81
2021/10/31 06:04:27;;;;;;;9.50;6.10;;;12.60;98.20;;;;;;5036823;28;20036;-81
2021/10/31 06:06:53;;;;;;;8.45;5.78;;;12.60;98.10;;;;;;5030547;28;20490;-80
2021/10/31 06:09:18;;;;;;;9.27;5.85;;;12.60;98.10;;;;;;5029595;28;20028;-81
2021/10/31 06:11:44;;;;;;;7.25;5.80;;;12.60;98.10;;;;;;5036912;28;20460;-80
2021/10/31 06:14:11;;;;;;;8.77;6.40;;;12.50;98.00;;;;;;5033269;28;20034;-80
2021/10/31 06:16:37;;;;;;;9.13;6.50;;;12.50;98.00;;;;;;5027001;28;20478;-81
2021/10/31 06:19:04;;;;;;;9.48;6.63;;;12.50;98.00;;;;;;5028342;28;20036;-81
2021/10/31 06:21:29;;;;;;;9.00;6.28;;;12.50;98.00;;;;;;5031470;28;20518;-81
2021/10/31 06:23:55;;;;;;;8.73;6.30;;;12.50;98.10;;;;;;5029032;28;20116;-81
2021/10/31 06:26:21;;;;;;;8.40;6.63;;;12.50;98.20;;;;;;5032164;28;20083;-81
2021/10/31 06:28:46;;;;;;;9.73;6.35;;;12.50;98.20;;;;;;5018204;28;20116;-81
2021/10/31 06:31:12;;;;;;;9.25;6.40;;;12.50;98.20;;;;;;5027408;28;20037;-81
2021/10/31 06:33:37;;;;;;;7.78;6.05;;;12.50;98.30;;;;;;5029349;28;20128;-80
2021/10/31 06:36:03;;;;;;;9.20;6.68;;;12.50;98.20;;;;;;5030448;28;20041;-81
2021/10/31 06:38:28;;;;;;;11.15;6.63;;;12.50;98.20;;;;;;5030800;28;20051;-80
2021/10/31 06:40:54;;;;;;;7.00;5.85;;;12.50;98.20;;;;;;5033923;28;20033;-79
2021/10/31 06:43:20;;;;;;;7.60;5.68;;;12.60;98.10;;;;;;5026742;28;20033;-82
2021/10/31 06:45:45;;;;;;;10.18;6.35;;;12.60;98.00;;;;;;5041802;28;20030;-81
2021/10/31 06:48:11;;;;;;;8.02;5.60;;;12.70;98.00;;;;;;5031076;28;20025;-82
2021/10/31 06:50:37;;;;;;;8.07;6.05;;;12.70;98.00;;;;;;5036554;28;20030;-81
2021/10/31 06:53:02;;;;;;;8.35;5.68;;;12.80;97.90;;;;;;5028881;28;20043;-78
2021/10/31 06:55:28;;;;;;;8.60;5.55;;;12.90;97.80;;;;;;5024862;28;20035;-81
2021/10/31 06:57:55;;;;;;;7.78;5.53;;;13.00;97.70;;;;;;5020985;28;20030;-82
2021/10/31 07:00:21;;;;;;;7.35;5.50;;;13.10;97.60;;;;;;5025121;28;20136;-82
2021/10/31 07:02:47;;;;;;;8.07;5.55;;;13.10;97.60;;;;;;5027666;28;20037;-80
2021/10/31 07:05:13;;;;;;;7.97;5.78;;;13.20;97.50;;;;;;5017234;28;20371;-80
2021/10/31 07:07:38;;;;;;;8.07;5.70;;;13.30;97.40;;;;;;5020844;28;20033;-81
2021/10/31 07:10:04;;;;;;;11.57;5.72;;;13.30;97.30;;;;;;5026056;28;20103;-81
2021/10/31 07:12:30;;;;;;;8.65;6.05;;;13.40;97.20;;;;;;5037076;28;20030;-80
2021/10/31 07:14:55;;;;;;;7.60;5.72;;;13.50;97.10;;;;;;5016779;28;20112;-80
2021/10/31 07:17:21;;;;;;;7.72;5.75;;;13.60;96.70;;;;;;5027699;28;20068;-80
2021/10/31 07:19:46;;;;;;;6.85;5.25;;;13.70;96.60;;;;;;5030063;28;20033;-81
2021/10/31 07:22:12;;;;;;;6.88;5.60;;;13.80;96.50;;;;;;5035245;28;20045;-81
2021/10/31 07:24:38;;;;;;;7.05;5.05;;;13.80;96.40;;;;;;5030497;28;20034;-81
2021/10/31 07:27:04;;;;;;;7.85;5.35;;;13.90;96.10;;;;;;5019840;28;20036;-81
2021/10/31 07:29:30;;;;;;;7.13;5.28;;;14.00;96.00;;;;;;5024931;28;20030;-81
2021/10/31 07:31:55;;;;;;;7.13;5.20;;;14.10;95.80;;;;;;5037941;28;20033;-81
2021/10/31 07:34:25;;;;;;;6.45;5.40;;;14.30;95.80;;;;;;5024914;28;20040;-81
2021/10/31 07:36:53;;;;;;;7.07;5.50;;;14.30;95.60;;;;;;5030405;28;20064;-81
2021/10/31 07:39:18;;;;;;;5.50;4.90;;;14.40;95.50;;;;;;5018701;28;20544;-81
2021/10/31 07:41:44;;;;;;;6.15;4.85;;;14.40;95.20;;;;;;5024855;28;20041;-80
2021/10/31 07:44:09;;;;;;;9.65;4.68;;;14.50;95.10;;;;;;5029337;28;20051;-82
2021/10/31 07:46:35;;;;;;;7.40;5.63;;;14.60;95.00;;;;;;5018035;28;20083;-81
2021/10/31 07:49:02;;;;;;;6.63;5.53;;;14.60;94.70;;;;;;5030152;28;20390;-80
2021/10/31 07:51:28;;;;;;;9.27;5.28;;;14.70;94.60;;;;;;5029338;28;20120;-79
2021/10/31 07:53:53;;;;;;;8.27;5.53;;;14.80;94.60;;;;;;5029297;28;20056;-80
2021/10/31 07:56:22;;;;;;;10.68;5.40;;;14.80;94.70;;;;;;5026880;28;20037;-81
2021/10/31 07:58:54;;;;;;;6.38;4.97;;;14.80;94.50;;;;;;5022244;28;20096;-80
2021/10/31 08:01:21;;;;;;;6.85;4.93;;;14.90;94.20;;;;;;5029218;28;20289;-82
2021/10/31 08:03:47;;;;;;;9.48;5.75;;;14.90;94.20;;;;;;5026923;28;20072;-83
2021/10/31 08:06:13;;;;;;;7.45;5.57;;;15.00;94.00;;;;;;5029577;28;20038;-82
2021/10/31 08:08:38;;;;;;;6.68;5.18;;;15.00;93.90;;;;;;5038403;28;20033;-83
2021/10/31 08:11:05;;;;;;;7.82;5.57;;;15.00;93.90;;;;;;5016966;28;20550;-83
2021/10/31 08:13:30;;;;;;;7.03;5.63;;;15.10;93.80;;;;;;5027822;28;20100;-82
2021/10/31 08:15:57;;;;;;;6.75;5.38;;;15.10;93.60;;;;;;5038555;28;20158;-82
2021/10/31 08:18:22;;;;;;;6.32;5.35;;;15.10;93.70;;;;;;5022914;28;20109;-81
2021/10/31 08:20:48;;;;;;;7.55;5.30;;;15.10;93.60;;;;;;5010980;28;20519;-80
2021/10/31 08:23:15;;;;;;;9.35;5.82;;;15.20;93.50;;;;;;5035421;28;20029;-81
2021/10/31 08:25:42;;;;;;;8.02;6.05;;;15.20;93.30;;;;;;5026633;28;20021;-81
2021/10/31 08:28:09;;;;;;;6.72;5.72;;;15.20;93.30;;;;;;5021000;28;20061;-81
2021/10/31 08:30:35;;;;;;;7.55;5.65;;;15.30;93.00;;;;;;5028732;28;20032;-80
2021/10/31 08:33:18;;;;;;;7.60;5.53;;;15.30;93.00;;;;;;5027475;28;20121;-81
2021/10/31 08:35:44;;;;;;;;;;;15.30;93.10;;;;;;5032267;28;20025;-82
2021/10/31 08:38:10;;;;;;;7.50;5.85;;;15.30;92.90;;;;;;5030159;28;20328;-81
2021/10/31 08:40:37;;;;;;;8.63;6.30;;;15.30;93.30;;;;;;5031561;28;20032;-81
2021/10/31 08:43:03;;;;;;;7.07;5.97;;;15.30;93.00;;;;;;5030527;28;20515;-81
2021/10/31 08:45:28;;;;;;;8.45;5.97;;;15.30;92.80;;;;;;5037627;28;20108;-81
2021/10/31 08:47:54;;;;;;;8.98;5.85;;;15.40;93.10;;;;;;5029429;28;20109;-82
2021/10/31 08:50:19;;;;;;;7.32;5.75;;;15.40;93.10;;;;;;5030206;28;20040;-81
2021/10/31 08:52:45;;;;;;;7.50;5.85;;;15.50;92.90;;;;;;5027813;28;20029;-81
2021/10/31 08:55:11;;;;;;;7.28;5.55;;;15.50;92.70;;;;;;5018844;28;20029;-81
2021/10/31 08:57:36;;;;;;;6.93;5.40;;;15.60;92.90;;;;;;5030704;28;20040;-81
2021/10/31 09:00:04;;;;;;;6.88;5.60;;;15.60;92.90;;;;;;5019534;28;20124;-81
2021/10/31 09:02:33;;;;;;;6.40;5.05;;;15.60;92.90;;;;;;5026149;28;20025;-81
2021/10/31 09:04:59;;;;;;;9.50;5.55;;;15.70;93.00;;;;;;5044247;28;20037;-81
2021/10/31 09:07:25;;;;;;;6.60;5.28;;;15.80;92.70;;;;;;5027603;28;20029;-81
2021/10/31 09:09:50;;;;;;;6.68;4.95;;;15.80;92.80;;;;;;5038339;28;20037;-81
2021/10/31 09:12:16;;;;;;;7.55;5.45;;;15.90;92.70;;;;;;5023979;28;20030;-81
2021/10/31 09:14:42;;;;;;;11.32;5.20;;;16.00;92.20;;;;;;5019289;28;20041;-80
2021/10/31 09:17:10;;;;;;;7.38;5.10;;;16.00;92.30;;;;;;5030574;28;20029;-80
2021/10/31 09:19:36;;;;;;;6.82;4.97;;;16.10;92.20;;;;;;5027550;28;20025;-80
2021/10/31 09:22:02;;;;;;;6.82;4.40;;;16.20;92.20;;;;;;5028150;28;20052;-79
2021/10/31 09:24:28;;;;;;;6.00;4.63;;;16.30;92.20;;;;;;5033392;28;20290;-81
2021/10/31 09:26:54;;;;;;;6.10;4.85;;;16.40;92.00;;;;;;5024578;28;20033;-80
2021/10/31 09:29:20;;;;;;;6.72;5.05;;;16.50;92.00;;;;;;5040028;28;20029;-80
2021/10/31 09:31:45;;;;;;;5.43;4.43;;;16.60;91.60;;;;;;5020161;28;20088;-80
2021/10/31 09:34:11;;;;;;;6.38;3.95;;;16.80;91.40;;;;;;5027709;28;20048;-80
2021/10/31 09:36:37;;;;;;;7.18;4.03;;;16.80;91.30;;;;;;5026869;28;20056;-81
2021/10/31 09:39:05;;;;;;;5.82;4.43;;;16.90;91.20;;;;;;5027447;28;20520;-82
2021/10/31 09:41:31;;;;;;;6.40;5.03;;;17.10;91.10;;;;;;5023443;28;20502;-82
2021/10/31 09:44:11;;;;;;;8.25;4.88;;;17.20;91.00;;;;;;5029269;28;20033;-79
2021/10/31 09:46:38;;;;;;;7.82;5.32;;;17.30;90.50;;;;;;5041570;28;20033;-81
2021/10/31 09:49:04;;;;;;;6.43;4.85;;;17.40;90.60;;;;;;5027723;28;20593;-82
2021/10/31 09:51:31;;;;;;;6.20;4.53;;;17.50;90.00;;;;;;5028594;28;20025;-79
2021/10/31 09:53:59;;;;;;;7.53;4.93;;;17.60;90.10;;;;;;5039760;28;20025;-79
2021/10/31 09:56:24;;;;;;;5.88;4.65;;;17.70;90.00;;;;;;5031475;28;20037;-79
2021/10/31 09:58:52;;;;;;;6.45;4.25;;;17.80;89.10;;;;;;5026854;28;20033;-79
2021/10/31 10:04:29;;;;;;;7.35;4.82;;;17.90;89.00;;;;;;5023487;28;20651;-79
2021/10/31 10:06:57;;;;;;;6.32;4.40;;;18.00;88.50;;;;;;5020720;28;20116;-80
2021/10/31 10:09:23;;;;;;;6.15;4.43;;;18.10;89.20;;;;;;5023203;28;20128;-80
2021/10/31 10:11:50;;;;;;;7.15;4.85;;;18.10;88.10;;;;;;5026222;28;20171;-80
2021/10/31 10:14:23;;;;;;;7.47;4.88;;;18.20;87.50;;;;;;5023512;28;20079;-79
2021/10/31 10:16:58;;;;;;;5.78;4.43;;;18.20;87.30;;;;;;5024424;28;20037;-80
2021/10/31 10:19:35;;;;;;;5.55;4.15;;;18.30;87.70;;;;;;5028559;28;20045;-79
2021/10/31 10:22:06;;;;;;;5.65;4.18;;;18.50;87.40;;;;;;5022295;28;20398;-80
2021/10/31 10:24:35;;;;;;;6.82;4.88;;;18.60;86.90;;;;;;5011833;28;20474;-79
2021/10/31 10:27:04;;;;;;;7.28;4.82;;;18.60;86.70;;;;;;5018872;28;20449;-80
2021/10/31 10:29:36;;;;;;;6.30;5.35;;;18.70;86.70;;;;;;5030145;28;20057;-79
2021/10/31 10:32:05;;;;;;;5.43;4.55;;;18.70;86.00;;;;;;5018752;28;20222;-80
2021/10/31 10:34:42;;;;;;;5.82;4.32;;;18.80;85.40;;;;;;5027729;28;20239;-79
2021/10/31 10:37:16;;;;;;;6.32;4.88;;;18.80;84.80;;;;;;5016812;28;20112;-79
2021/10/31 10:39:44;;;;;;;6.30;4.90;;;18.90;84.40;;;;;;5023938;28;20025;-80
2021/10/31 10:42:19;;;;;;;6.18;4.05;;;18.90;83.80;;;;;;5024217;28;20025;-79
2021/10/31 10:44:44;;;;;;;5.15;4.43;;;19.00;83.80;;;;;;5017741;28;20038;-79
2021/10/31 10:47:18;;;;;;;6.22;4.28;;;19.00;83.30;;;;;;5017331;28;20034;-79
2021/10/31 10:49:46;;;;;;;6.18;4.32;;;19.10;83.30;;;;;;5016665;28;20032;-79
2021/10/31 10:52:19;;;;;;;4.90;3.83;;;19.20;83.00;;;;;;5029287;28;20494;-79
2021/10/31 10:55:00;;;;;;;5.88;4.20;;;19.30;83.00;;;;;;5039555;28;20074;-81
2021/10/31 10:57:28;;;;;;;4.65;3.83;;;19.30;83.00;;;;;;5039634;28;20072;-80
2021/10/31 11:00:14;;;;;;;6.18;4.93;;;19.40;82.30;;;;;;5025949;28;20038;-79
2021/10/31 11:02:40;;;;;;;6.47;4.20;;;19.50;82.40;;;;;;5027198;28;20021;-81
2021/10/31 11:05:09;;;;;;;6.70;3.95;;;19.50;82.50;;;;;;5018237;28;20077;-81
2021/10/31 11:07:42;;;;;;;8.80;4.55;;;19.60;82.40;;;;;;5023493;28;20119;-81
2021/10/31 11:10:24;;;;;;;6.03;4.28;;;19.60;81.90;;;;;;5029198;28;20410;-80
2021/10/31 11:12:55;;;;;;;5.28;3.83;;;19.70;81.70;;;;;;5024223;28;20033;-81
2021/10/31 11:15:24;;;;;;;5.27;4.43;;;19.70;80.90;;;;;;5029756;28;20033;-80
2021/10/31 11:17:53;;;;;;;11.45;4.20;;;19.80;80.60;;;;;;5027562;28;20601;-80
2021/10/31 11:20:21;;;;;;;5.22;3.83;;;19.80;81.50;;;;;;5018126;28;20033;-80
2021/10/31 11:22:49;;;;;;;4.03;3.55;;;19.80;81.10;;;;;;5022282;28;20064;-80
2021/10/31 11:25:17;;;;;;;10.15;4.03;;;19.80;81.40;;;;;;5021974;28;20037;-82
2021/10/31 11:27:44;;;;;;;6.65;4.43;;;19.90;82.80;;;;;;5029480;28;20040;-81
2021/10/31 11:30:12;;;;;;;3.90;3.50;;;19.90;81.70;;;;;;5024255;28;20075;-81
2021/10/31 11:32:40;;;;;;;4.20;3.25;;;20.00;82.30;;;;;;5042164;28;20490;-80
2021/10/31 11:35:09;;;;;;;4.28;3.40;;;20.00;81.80;;;;;;5026075;28;20100;-80
2021/10/31 11:37:41;;;;;;;5.22;3.53;;;20.10;81.60;;;;;;5030874;28;20077;-83
2021/10/31 11:40:09;;;;;;;5.13;3.42;;;20.10;81.30;;;;;;5031454;28;21714;-82
2021/10/31 11:42:38;;;;;;;4.70;3.47;;;20.20;81.50;;;;;;5029892;28;20030;-82
2021/10/31 11:45:04;;;;;;;4.53;3.20;;;20.20;81.30;;;;;;5027395;28;20033;-82
2021/10/31 11:47:29;;;;;;;4.43;3.30;;;20.30;80.90;;;;;;5030377;28;20485;-81
2021/10/31 11:50:21;;;;;;;4.18;2.78;;;20.30;81.00;;;;;;5025981;28;20038;-81
2021/10/31 11:52:51;;;;;;;3.50;2.65;;;20.30;80.80;;;;;;5027414;28;20037;-80
2021/10/31 11:55:29;;;;;;;3.85;2.88;;;20.30;82.00;;;;;;5030479;28;20025;-80
2021/10/31 11:58:05;;;;;;;4.63;3.25;;;20.40;81.30;;;;;;5025801;28;20394;-78
2021/10/31 12:00:31;;;;;;;3.60;3.08;;;20.50;81.20;;;;;;5039710;28;20053;-80
2021/10/31 12:03:03;;;;;;;3.38;2.80;;;20.60;81.50;;;;;;5038066;28;20052;-82
2021/10/31 12:05:41;;;;;;;4.22;3.45;;;20.70;81.30;;;;;;5040143;28;20026;-82
2021/10/31 12:08:08;;;;;;;4.43;3.40;;;20.80;80.70;;;;;;5040893;28;20038;-81
2021/10/31 12:10:49;;;;;;;6.03;3.83;;;20.80;80.80;;;;;;5031706;28;20040;-81
2021/10/31 12:13:22;;;;;;;5.90;4.15;;;20.90;81.80;;;;;;5026756;28;20072;-82
2021/10/31 12:16:20;;;;;;;4.72;3.15;;;21.00;81.50;;;;;;5032796;28;20029;-81
2021/10/31 12:18:51;;;;;;;3.67;3.15;;;21.00;81.70;;;;;;5035871;28;20038;-79
2021/10/31 12:21:20;;;;;;;5.55;3.67;;;21.00;81.50;;;;;;5016061;28;20654;-81
2021/10/31 12:23:55;;;;;;;7.22;3.90;;;21.00;81.30;;;;;;5028214;28;20038;-80
2021/10/31 12:26:22;;;;;;;4.43;3.30;;;21.10;81.90;;;;;;5012716;28;20398;-82
2021/10/31 12:28:48;;;;;;;6.13;3.45;;;21.10;80.80;;;;;;5029716;28;20033;-80
2021/10/31 12:31:30;;;;;;;6.47;3.70;;;21.20;80.70;;;;;;5038554;28;20120;-79
2021/10/31 12:34:16;;;;;;;4.63;3.55;;;21.20;80.40;;;;;;5024972;28;20109;-81
2021/10/31 12:36:45;;;;;;;5.00;3.70;;;21.20;80.30;;;;;;5031731;28;20033;-80
2021/10/31 12:39:33;;;;;;;3.67;3.20;;;21.20;80.60;;;;;;5026612;28;20053;-80
2021/10/31 12:42:23;;;;;;;6.25;3.30;;;21.30;80.00;;;;;;5028637;28;20054;-82
2021/10/31 12:44:54;;;;;;;4.05;3.22;;;21.40;80.20;;;;;;5023925;28;20033;-82
2021/10/31 12:47:26;;;;;;;4.45;3.80;;;21.40;80.20;;;;;;5030559;28;20070;-83
2021/10/31 12:50:07;;;;;;;3.92;3.08;;;21.40;80.20;;;;;;5030371;28;20467;-83
2021/10/31 12:52:33;;;;;;;4.75;3.47;;;21.40;79.70;;;;;;5028242;28;20037;-83
2021/10/31 12:55:05;;;;;;;4.65;3.17;;;21.40;79.50;;;;;;5024700;28;20038;-83
2021/10/31 12:57:31;;;;;;;4.78;2.88;;;21.50;79.70;;;;;;5033636;28;20097;-81